createdAt,value
2022-08-30T00:01:03.215Z,10.05
2022-08-30T00:03:07.081Z,10.70
2022-08-30T00:05:09.514Z,10.70
2022-08-30T00:07:11.393Z,10.43
2022-08-30T00:09:13.185Z,11.33
2022-08-30T00:11:22.829Z,10.93
2022-08-30T00:13:25.039Z,10.70
2022-08-30T00:15:27.538Z,11.70
2022-08-30T00:17:29.354Z,10.82
2022-08-30T00:19:31.398Z,10.88
2022-08-30T00:21:33.226Z,10.90
2022-08-30T00:23:35.394Z,11.23
2022-08-30T00:25:37.176Z,10.93
2022-08-30T00:27:39.366Z,11.05
2022-08-30T00:29:41.418Z,10.88
2022-08-30T00:31:43.239Z,10.75
2022-08-30T00:33:45.013Z,10.98
2022-08-30T00:35:46.760Z,11.10
2022-08-30T00:37:50.032Z,10.35
2022-08-30T00:39:51.898Z,10.35
2022-08-30T00:41:53.719Z,11.10
2022-08-30T00:43:55.526Z,11.35
2022-08-30T00:45:58.045Z,11.70
2022-08-30T00:48:01.016Z,10.80
2022-08-30T00:50:03.642Z,10.80
2022-08-30T00:52:07.472Z,11.38
2022-08-30T00:54:09.742Z,10.93
2022-08-30T00:56:13.795Z,10.25
2022-08-30T00:58:21.830Z,10.93
2022-08-30T01:00:24.073Z,11.32
2022-08-30T01:02:30.777Z,12.05
2022-08-30T01:04:33.920Z,10.85
2022-08-30T01:06:36.618Z,11.32
2022-08-30T01:08:39.262Z,11.73
2022-08-30T01:10:41.594Z,11.88
2022-08-30T01:12:45.093Z,10.52
2022-08-30T01:14:47.644Z,10.73
2022-08-30T01:16:51.101Z,10.73
2022-08-30T01:18:56.351Z,10.02
2022-08-30T01:21:27.530Z,10.20
2022-08-30T01:23:30.225Z,10.55
2022-08-30T01:25:34.661Z,10.43
2022-08-30T01:27:39.885Z,10.60
2022-08-30T01:29:45.026Z,10.57
2022-08-30T01:31:46.949Z,10.77
2022-08-30T01:33:48.803Z,10.73
2022-08-30T01:35:59.617Z,11.25
2022-08-30T01:38:02.046Z,10.52
2022-08-30T01:40:05.088Z,10.93
2022-08-30T01:42:07.024Z,10.35
2022-08-30T01:44:10.956Z,10.67
2022-08-30T01:46:14.768Z,10.10
2022-08-30T01:48:16.624Z,9.65
2022-08-30T01:50:18.436Z,11.43
2022-08-30T01:52:20.715Z,10.57
2022-08-30T01:54:22.515Z,10.70
2022-08-30T01:56:31.113Z,10.25
2022-08-30T01:58:33.765Z,10.85
2022-08-30T02:00:35.566Z,9.50
2022-08-30T02:02:37.464Z,10.45
2022-08-30T02:04:39.370Z,10.37
2022-08-30T02:06:41.542Z,10.73
2022-08-30T02:08:44.324Z,10.32
2022-08-30T02:12:47.789Z,10.40
2022-08-30T02:14:49.619Z,10.02
2022-08-30T02:16:51.522Z,9.87
2022-08-30T02:18:54.596Z,10.60
2022-08-30T02:20:56.401Z,9.93
2022-08-30T02:23:01.223Z,10.20
2022-08-30T02:25:09.821Z,10.05
2022-08-30T02:27:22.722Z,9.30
2022-08-30T02:29:25.191Z,10.32
2022-08-30T02:31:26.990Z,10.02
2022-08-30T02:33:29.184Z,10.00
2022-08-30T02:35:31.358Z,10.05
2022-08-30T02:37:33.208Z,9.85
2022-08-30T02:39:35.001Z,10.07
2022-08-30T02:41:38.258Z,10.02
2022-08-30T02:43:40.099Z,10.18
2022-08-30T02:45:42.552Z,10.30
2022-08-30T02:47:46.925Z,10.10
2022-08-30T02:49:49.015Z,10.02
2022-08-30T02:51:51.228Z,10.05
2022-08-30T02:53:53.259Z,9.90
2022-08-30T02:55:55.486Z,9.95
2022-08-30T02:57:59.963Z,10.50
2022-08-30T03:00:01.878Z,10.35
2022-08-30T03:02:03.781Z,10.00
2022-08-30T03:04:06.236Z,10.20
2022-08-30T03:06:08.417Z,10.35
2022-08-30T03:08:11.420Z,10.25
2022-08-30T03:10:14.725Z,9.68
2022-08-30T03:12:16.537Z,10.32
2022-08-30T03:14:18.315Z,9.55
2022-08-30T03:16:22.629Z,9.98
2022-08-30T03:18:25.120Z,9.57
2022-08-30T03:20:27.024Z,9.50
2022-08-30T03:22:29.741Z,9.37
2022-08-30T03:26:33.697Z,10.15
2022-08-30T03:28:35.473Z,10.13
2022-08-30T03:30:37.515Z,9.25
2022-08-30T03:32:40.638Z,10.23
2022-08-30T03:34:45.335Z,9.93
2022-08-30T03:36:48.711Z,9.13
2022-08-30T03:38:50.544Z,9.45
2022-08-30T03:40:52.328Z,9.07
2022-08-30T03:42:54.137Z,9.75
2022-08-30T03:44:56.335Z,9.70
2022-08-30T03:46:58.125Z,9.48
2022-08-30T03:48:59.937Z,9.63
2022-08-30T03:51:01.693Z,9.48
2022-08-30T03:53:03.597Z,8.93
2022-08-30T03:55:06.123Z,9.03
2022-08-30T03:57:07.973Z,8.75
2022-08-30T03:59:15.787Z,9.05
2022-08-30T04:01:17.738Z,9.15
2022-08-30T04:03:25.715Z,9.13
2022-08-30T04:05:27.695Z,9.25
2022-08-30T04:07:29.503Z,9.30
2022-08-30T04:09:31.451Z,9.43
2022-08-30T04:11:33.726Z,8.82
2022-08-30T04:13:35.525Z,8.98
2022-08-30T04:15:37.296Z,8.85
2022-08-30T04:17:39.122Z,9.32
2022-08-30T04:19:40.929Z,9.50
2022-08-30T04:21:43.069Z,9.73
2022-08-30T04:23:46.849Z,10.35
2022-08-30T04:25:48.930Z,9.23
2022-08-30T04:27:50.833Z,8.77
2022-08-30T04:29:54.107Z,10.00
2022-08-30T04:31:58.259Z,9.13
2022-08-30T04:34:00.136Z,8.87
2022-08-30T04:36:04.902Z,9.83
2022-08-30T04:38:06.699Z,9.52
2022-08-30T04:40:09.496Z,10.18
2022-08-30T04:42:11.608Z,9.35
2022-08-30T04:44:15.838Z,9.68
2022-08-30T04:46:21.575Z,9.63
2022-08-30T04:48:23.682Z,9.23
2022-08-30T04:50:26.154Z,9.82
2022-08-30T04:52:29.146Z,9.13
2022-08-30T04:54:30.996Z,9.85
2022-08-30T04:56:33.569Z,9.32
2022-08-30T04:58:35.425Z,9.32
2022-08-30T05:00:37.518Z,9.45
2022-08-30T05:02:41.162Z,9.50
2022-08-30T05:05:03.061Z,8.85
2022-08-30T05:07:04.908Z,9.50
2022-08-30T05:09:06.790Z,9.33
2022-08-30T05:11:09.486Z,9.15
2022-08-30T05:13:11.730Z,9.80
2022-08-30T05:15:13.706Z,9.25
2022-08-30T05:17:15.685Z,9.77
2022-08-30T05:19:17.464Z,10.43
2022-08-30T05:21:23.080Z,8.88
2022-08-30T05:23:24.856Z,10.32
2022-08-30T05:25:32.488Z,10.30
2022-08-30T05:27:34.458Z,9.50
2022-08-30T05:29:39.402Z,10.35
2022-08-30T05:31:41.309Z,9.98
2022-08-30T05:33:44.078Z,10.57
2022-08-30T05:37:48.071Z,9.65
2022-08-30T05:39:51.165Z,10.43
2022-08-30T05:41:59.595Z,9.18
2022-08-30T05:44:03.241Z,9.60
2022-08-30T05:46:11.728Z,10.45
2022-08-30T05:48:13.743Z,9.77
2022-08-30T05:50:15.831Z,10.50
2022-08-30T05:52:18.309Z,10.18
2022-08-30T05:54:20.137Z,10.02
2022-08-30T05:56:25.972Z,10.48
2022-08-30T05:58:28.052Z,9.82
2022-08-30T06:00:31.053Z,10.13
2022-08-30T06:02:33.186Z,9.23
2022-08-30T06:04:36.793Z,10.27
2022-08-30T06:06:40.616Z,10.32
2022-08-30T06:08:45.615Z,9.10
2022-08-30T06:10:47.493Z,9.55
2022-08-30T06:12:50.030Z,9.70
2022-08-30T06:14:51.837Z,9.05
2022-08-30T06:16:55.515Z,9.77
2022-08-30T06:18:58.737Z,8.77
2022-08-30T06:21:00.600Z,9.27
2022-08-30T06:23:02.489Z,8.13
2022-08-30T06:25:04.808Z,9.33
2022-08-30T06:27:06.729Z,10.43
2022-08-30T06:29:11.131Z,9.73
2022-08-30T06:31:15.089Z,9.43
2022-08-30T06:33:16.974Z,9.27
2022-08-30T06:35:18.841Z,9.52
2022-08-30T06:37:24.641Z,9.17
2022-08-30T06:39:31.980Z,8.93
2022-08-30T06:41:37.303Z,9.10
2022-08-30T06:43:39.382Z,8.70
2022-08-30T06:45:41.471Z,9.02
2022-08-30T06:47:44.952Z,9.07
2022-08-30T06:49:46.838Z,9.38
2022-08-30T06:51:48.723Z,9.88
2022-08-30T06:53:50.587Z,8.97
2022-08-30T06:56:04.786Z,9.05
2022-08-30T06:58:06.587Z,8.93
2022-08-30T07:00:10.395Z,8.48
2022-08-30T07:02:12.394Z,9.52
2022-08-30T07:04:14.237Z,9.32
2022-08-30T07:06:16.271Z,9.40
2022-08-30T07:08:23.045Z,8.55
2022-08-30T07:10:24.892Z,9.05
2022-08-30T07:12:26.730Z,10.07
2022-08-30T07:14:28.533Z,8.50
2022-08-30T07:16:30.954Z,8.60
2022-08-30T07:18:51.172Z,8.95
2022-08-30T07:20:53.023Z,9.07
2022-08-30T07:22:55.770Z,9.70
2022-08-30T07:26:59.209Z,9.07
2022-08-30T07:29:01.898Z,8.55
2022-08-30T07:31:04.429Z,9.07
2022-08-30T07:33:07.145Z,8.93
2022-08-30T07:37:10.709Z,8.48
2022-08-30T07:39:20.778Z,8.35
2022-08-30T07:41:32.229Z,9.23
2022-08-30T07:43:35.126Z,8.88
2022-08-30T07:45:38.178Z,8.40
2022-08-30T07:47:40.147Z,8.60
2022-08-30T07:49:41.970Z,8.77
2022-08-30T07:51:44.390Z,8.50
2022-08-30T07:53:46.892Z,9.07
2022-08-30T07:55:48.718Z,8.85
2022-08-30T07:57:50.906Z,9.32
2022-08-30T07:59:53.153Z,9.30
2022-08-30T08:01:55.005Z,9.45
2022-08-30T08:03:58.045Z,8.93
2022-08-30T08:06:03.027Z,8.60
2022-08-30T08:08:05.744Z,8.00
2022-08-30T08:12:09.875Z,8.90
2022-08-30T08:14:11.859Z,8.75
2022-08-30T08:16:13.877Z,8.85
2022-08-30T08:18:19.192Z,8.63
2022-08-30T08:20:21.093Z,8.23
2022-08-30T08:22:23.141Z,9.20
2022-08-30T08:24:24.931Z,7.68
2022-08-30T08:26:27.049Z,7.70
2022-08-30T08:28:28.931Z,7.95
2022-08-30T08:30:35.003Z,8.50
2022-08-30T08:32:36.794Z,8.85
2022-08-30T08:34:38.574Z,7.93
2022-08-30T08:36:40.435Z,8.57
2022-08-30T08:38:42.400Z,8.03
2022-08-30T08:40:47.053Z,7.47
2022-08-30T08:42:49.124Z,7.20
2022-08-30T08:45:11.510Z,7.57
2022-08-30T08:47:33.758Z,8.00
2022-08-30T08:49:37.999Z,7.90
2022-08-30T08:51:59.127Z,8.52
2022-08-30T08:54:19.411Z,8.13
2022-08-30T08:56:24.348Z,8.38
2022-08-30T08:58:28.884Z,8.23
2022-08-30T09:00:32.323Z,8.40
2022-08-30T09:02:44.203Z,8.35
2022-08-30T09:04:46.251Z,7.68
2022-08-30T09:07:00.627Z,7.70
2022-08-30T09:09:02.502Z,7.50
2022-08-30T09:11:11.260Z,7.18
2022-08-30T09:13:13.867Z,7.13
2022-08-30T09:17:23.331Z,6.97
2022-08-30T09:19:30.583Z,7.85
2022-08-30T09:21:36.694Z,7.05
2022-08-30T09:23:49.812Z,7.40
2022-08-30T09:25:59.325Z,6.93
2022-08-30T09:28:13.602Z,6.85
2022-08-30T09:30:27.267Z,6.70
2022-08-30T09:32:39.636Z,8.07
2022-08-30T09:34:43.639Z,6.68
2022-08-30T09:36:52.055Z,6.82
2022-08-30T09:39:01.533Z,6.50
2022-08-30T09:41:42.948Z,6.07
2022-08-30T09:43:44.818Z,6.30
2022-08-30T09:45:49.790Z,6.43
2022-08-30T09:47:51.761Z,6.45
2022-08-30T09:50:24.105Z,6.20
2022-08-30T09:52:56.902Z,6.10
2022-08-30T09:55:32.553Z,6.18
2022-08-30T09:57:46.316Z,6.00
2022-08-30T10:00:02.046Z,5.43
2022-08-30T10:02:20.130Z,5.25
2022-08-30T10:04:37.471Z,5.30
2022-08-30T10:06:51.224Z,5.28
2022-08-30T10:08:58.969Z,5.10
2022-08-30T10:11:14.611Z,3.97
2022-08-30T10:13:54.059Z,4.72
2022-08-30T10:22:33.620Z,5.03
2022-08-30T10:24:43.990Z,5.30
2022-08-30T10:27:10.809Z,5.38
2022-08-30T10:29:23.680Z,5.40
2022-08-30T10:31:37.084Z,6.03
2022-08-30T10:33:45.259Z,5.82
2022-08-30T10:35:53.069Z,5.05
2022-08-30T10:38:11.971Z,5.20
2022-08-30T10:41:01.036Z,4.45
2022-08-30T10:43:09.740Z,5.10
2022-08-30T10:45:15.294Z,4.15
2022-08-30T10:47:44.988Z,5.00
2022-08-30T10:49:49.470Z,4.75
2022-08-30T10:52:00.420Z,5.07
2022-08-30T10:54:20.985Z,4.65
2022-08-30T10:56:26.950Z,5.50
2022-08-30T10:58:31.358Z,5.40
2022-08-30T11:00:46.558Z,4.53
2022-08-30T11:03:06.335Z,4.63
2022-08-30T11:05:40.708Z,4.28
2022-08-30T11:08:02.344Z,4.65
2022-08-30T11:10:22.407Z,4.88
2022-08-30T11:12:41.634Z,4.28
2022-08-30T11:14:46.086Z,4.13
2022-08-30T11:16:51.101Z,4.30
2022-08-30T11:18:56.381Z,4.78
2022-08-30T11:21:23.790Z,4.30
2022-08-30T11:23:34.920Z,4.30
2022-08-30T11:25:57.664Z,4.40
2022-08-30T11:28:00.037Z,4.20
2022-08-30T11:30:24.465Z,4.03
2022-08-30T11:35:49.843Z,4.68
2022-08-30T11:37:51.625Z,3.90
2022-08-30T11:39:55.220Z,4.22
2022-08-30T11:42:24.455Z,4.10
2022-08-30T11:44:32.874Z,4.00
2022-08-30T11:46:40.473Z,4.57
2022-08-30T11:48:54.634Z,4.32
2022-08-30T11:51:08.673Z,4.18
2022-08-30T11:53:32.297Z,4.28
2022-08-30T11:55:58.531Z,4.05
2022-08-30T11:58:15.250Z,3.90
2022-08-30T12:00:35.068Z,4.22
2022-08-30T12:02:40.280Z,4.25
2022-08-30T12:04:47.400Z,4.10
2022-08-30T12:06:52.073Z,4.28
2022-08-30T12:08:57.900Z,4.20
2022-08-30T12:11:12.058Z,4.78
2022-08-30T12:13:37.026Z,4.55
2022-08-30T12:15:56.207Z,4.53
2022-08-30T12:18:18.692Z,4.20
2022-08-30T12:20:30.807Z,4.93
2022-08-30T12:22:37.759Z,4.32
2022-08-30T12:24:43.765Z,4.20
2022-08-30T12:26:48.599Z,4.97
2022-08-30T12:28:53.703Z,4.68
2022-08-30T12:30:55.524Z,4.38
2022-08-30T12:32:58.750Z,4.53
2022-08-30T12:35:04.032Z,4.70
2022-08-30T12:37:05.808Z,4.55
2022-08-30T12:39:22.769Z,4.50
2022-08-30T12:41:24.590Z,4.78
2022-08-30T12:43:47.375Z,4.80
2022-08-30T12:45:51.348Z,4.50
2022-08-30T12:48:15.710Z,3.95
2022-08-30T12:50:22.424Z,4.20
2022-08-30T12:52:28.754Z,4.60
2022-08-30T12:54:31.187Z,4.25
2022-08-30T12:57:32.099Z,4.28
2022-08-30T12:59:40.141Z,4.28
2022-08-30T13:01:41.975Z,5.05
2022-08-30T13:04:24.329Z,4.63
2022-08-30T13:06:54.693Z,4.50
2022-08-30T13:08:57.585Z,4.70
2022-08-30T13:11:07.912Z,5.05
2022-08-30T13:13:10.440Z,5.03
2022-08-30T13:15:19.007Z,4.95
2022-08-30T13:17:27.476Z,4.40
2022-08-30T13:19:35.602Z,4.35
2022-08-30T13:21:51.330Z,4.80
2022-08-30T13:23:58.236Z,4.50
2022-08-30T13:26:01.587Z,4.53
2022-08-30T13:28:04.454Z,4.43
2022-08-30T13:30:16.210Z,4.72
2022-08-30T13:32:18.228Z,4.22
2022-08-30T13:34:22.574Z,4.57
2022-08-30T13:36:37.822Z,3.78
2022-08-30T13:38:40.181Z,4.55
2022-08-30T13:40:44.969Z,4.30
2022-08-30T13:42:47.464Z,3.97
2022-08-30T13:44:49.236Z,4.28
2022-08-30T13:46:55.261Z,4.30
2022-08-30T13:49:43.154Z,3.72
2022-08-30T13:51:28.962Z,4.22
2022-08-30T13:54:00.670Z,4.65
2022-08-30T13:55:52.646Z,4.65
2022-08-30T13:57:55.365Z,4.38
2022-08-30T13:59:58.195Z,4.25
2022-08-30T14:02:08.833Z,4.25
2022-08-30T14:04:13.723Z,4.15
2022-08-30T14:06:32.722Z,5.05
2022-08-30T14:08:45.565Z,4.50
2022-08-30T14:10:48.128Z,4.20
2022-08-30T14:12:53.491Z,4.35
2022-08-30T14:14:59.473Z,4.70
2022-08-30T14:17:01.775Z,4.47
2022-08-30T14:19:04.397Z,4.72
2022-08-30T14:21:07.618Z,4.85
2022-08-30T14:23:10.056Z,4.90
2022-08-30T14:25:12.357Z,4.97
2022-08-30T14:27:14.600Z,4.45
2022-08-30T14:29:26.336Z,4.47
2022-08-30T14:31:32.670Z,4.22
2022-08-30T14:33:35.247Z,4.40
2022-08-30T14:35:37.389Z,4.35
2022-08-30T14:37:40.902Z,4.20
2022-08-30T14:39:42.712Z,4.30
2022-08-30T14:41:50.879Z,4.05
2022-08-30T14:43:52.828Z,4.28
2022-08-30T14:45:54.721Z,4.40
2022-08-30T14:47:57.585Z,4.03
2022-08-30T14:50:01.853Z,4.10
2022-08-30T14:52:03.834Z,4.30
2022-08-30T14:54:05.623Z,4.20
2022-08-30T14:56:13.132Z,4.50
2022-08-30T14:58:18.092Z,4.00
2022-08-30T15:00:20.257Z,3.83
2022-08-30T15:02:25.299Z,3.75
2022-08-30T15:04:30.129Z,3.90
2022-08-30T15:06:33.579Z,4.10
2022-08-30T15:10:40.705Z,3.95
2022-08-30T15:12:48.038Z,4.35
2022-08-30T15:14:49.823Z,3.78
2022-08-30T15:16:54.545Z,4.28
2022-08-30T15:18:58.022Z,3.70
2022-08-30T15:20:59.811Z,4.18
2022-08-30T15:23:01.669Z,4.22
2022-08-30T15:25:04.376Z,3.90
2022-08-30T15:27:06.710Z,3.83
2022-08-30T15:29:10.375Z,3.90
2022-08-30T15:31:12.460Z,4.13
2022-08-30T15:33:14.260Z,3.72
2022-08-30T15:35:16.794Z,4.20
2022-08-30T15:37:22.445Z,3.40
2022-08-30T15:39:24.610Z,3.67
2022-08-30T15:41:28.172Z,3.97
2022-08-30T15:43:30.580Z,3.45
2022-08-30T15:45:33.309Z,3.60
2022-08-30T15:49:37.811Z,3.90
2022-08-30T15:51:41.481Z,3.47
2022-08-30T15:53:45.740Z,3.78
2022-08-30T15:55:48.240Z,3.42
2022-08-30T15:57:52.777Z,3.45
2022-08-30T15:59:54.666Z,3.45
2022-08-30T16:01:57.362Z,3.67
2022-08-30T16:04:00.186Z,3.90
2022-08-30T16:06:02.651Z,3.53
2022-08-30T16:10:06.686Z,3.22
2022-08-30T16:12:09.925Z,2.92
2022-08-30T16:14:11.937Z,3.38
2022-08-30T16:16:13.818Z,2.97
2022-08-30T16:18:16.224Z,3.75
2022-08-30T16:20:18.078Z,2.90
2022-08-30T16:22:22.412Z,3.80
2022-08-30T16:24:25.909Z,3.30
2022-08-30T16:26:29.331Z,3.47
2022-08-30T16:28:31.470Z,3.50
2022-08-30T16:30:33.486Z,3.88
2022-08-30T16:32:35.418Z,3.55
2022-08-30T16:34:37.281Z,3.50
2022-08-30T16:36:40.098Z,3.35
2022-08-30T16:38:42.036Z,3.92
2022-08-30T16:40:43.912Z,3.72
2022-08-30T16:42:45.872Z,3.30
2022-08-30T16:44:48.354Z,3.65
2022-08-30T16:46:53.400Z,3.83
2022-08-30T16:48:58.289Z,3.58
2022-08-30T16:51:00.975Z,3.80
2022-08-30T16:53:02.873Z,4.00
2022-08-30T16:55:05.146Z,3.67
2022-08-30T16:57:07.153Z,3.97
2022-08-30T16:59:11.523Z,4.47
2022-08-30T17:01:14.656Z,3.78
2022-08-30T17:03:19.133Z,3.83
2022-08-30T17:05:23.708Z,3.70
2022-08-30T17:09:31.124Z,3.45
2022-08-30T17:11:34.681Z,4.47
2022-08-30T17:13:37.428Z,3.80
2022-08-30T17:15:39.300Z,3.90
2022-08-30T17:20:06.621Z,3.57
2022-08-30T17:22:13.462Z,3.85
2022-08-30T17:24:15.256Z,4.35
2022-08-30T17:26:17.816Z,4.00
2022-08-30T17:28:19.843Z,4.07
2022-08-30T17:30:24.137Z,4.05
2022-08-30T17:32:26.135Z,4.22
2022-08-30T17:34:28.146Z,4.32
2022-08-30T17:36:29.954Z,4.30
2022-08-30T17:38:31.767Z,4.93
2022-08-30T17:40:33.708Z,4.43
2022-08-30T17:42:35.628Z,4.30
2022-08-30T17:44:38.033Z,5.20
2022-08-30T17:46:44.247Z,4.80
2022-08-30T17:48:46.450Z,5.10
2022-08-30T17:50:56.022Z,4.95
2022-08-30T17:52:58.414Z,4.88
2022-08-30T17:55:01.020Z,5.60
2022-08-30T17:57:10.688Z,5.47
2022-08-30T17:59:15.850Z,5.38
2022-08-30T18:01:18.978Z,5.40
2022-08-30T18:03:22.959Z,5.38
2022-08-30T18:05:25.329Z,5.18
2022-08-30T18:07:27.390Z,5.85
2022-08-30T18:09:33.689Z,4.93
2022-08-30T18:11:41.926Z,5.30
2022-08-30T18:13:43.730Z,5.80
2022-08-30T18:15:45.537Z,5.43
2022-08-30T18:17:52.630Z,5.55
2022-08-30T18:19:54.425Z,5.63
2022-08-30T18:21:58.655Z,5.65
2022-08-30T18:26:02.849Z,5.72
2022-08-30T18:28:05.387Z,5.75
2022-08-30T18:30:11.779Z,6.15
2022-08-30T18:32:13.858Z,5.88
2022-08-30T18:34:15.681Z,6.93
2022-08-30T18:36:17.732Z,6.35
2022-08-30T18:38:23.836Z,6.40
2022-08-30T18:40:25.766Z,6.72
2022-08-30T18:42:28.106Z,6.50
2022-08-30T18:44:33.375Z,7.13
2022-08-30T18:46:35.601Z,6.13
2022-08-30T18:48:38.617Z,6.28
2022-08-30T18:50:43.822Z,6.47
2022-08-30T18:52:45.797Z,5.93
2022-08-30T18:54:52.494Z,6.55
2022-08-30T18:56:54.942Z,6.85
2022-08-30T18:58:56.704Z,7.22
2022-08-30T19:00:58.549Z,7.15
2022-08-30T19:03:00.514Z,7.17
2022-08-30T19:05:02.317Z,7.25
2022-08-30T19:07:07.747Z,7.50
2022-08-30T19:09:10.230Z,7.72
2022-08-30T19:11:12.092Z,8.23
2022-08-30T19:13:14.002Z,7.93
2022-08-30T19:15:16.153Z,8.52
2022-08-30T19:17:19.691Z,7.30
2022-08-30T19:19:22.068Z,7.38
2022-08-30T19:21:23.884Z,6.97
2022-08-30T19:23:27.826Z,6.75
2022-08-30T19:25:35.858Z,7.10
2022-08-30T19:27:40.050Z,7.40
2022-08-30T19:29:42.465Z,7.30
2022-08-30T19:31:46.549Z,7.03
2022-08-30T19:33:48.467Z,7.03
2022-08-30T19:35:51.634Z,7.17
2022-08-30T19:37:53.641Z,7.78
2022-08-30T19:39:55.847Z,7.25
2022-08-30T19:42:00.991Z,7.20
2022-08-30T19:44:04.316Z,7.43
2022-08-30T19:46:07.031Z,7.60
2022-08-30T19:48:10.078Z,7.55
2022-08-30T19:52:14.962Z,7.28
2022-08-30T19:54:17.353Z,7.10
2022-08-30T19:56:19.425Z,7.72
2022-08-30T19:58:21.242Z,7.93
2022-08-30T20:00:23.518Z,8.37
2022-08-30T20:02:25.797Z,8.50
2022-08-30T20:04:29.760Z,8.30
2022-08-30T20:06:32.566Z,7.97
2022-08-30T20:08:34.958Z,9.10
2022-08-30T20:10:37.425Z,8.80
2022-08-30T20:12:45.573Z,8.38
2022-08-30T20:14:48.401Z,8.55
2022-08-30T20:18:53.749Z,8.75
2022-08-30T20:20:56.016Z,8.13
2022-08-30T20:22:57.796Z,7.90
2022-08-30T20:24:23.645Z,3.95
2022-08-30T20:24:59.686Z,7.88
2022-08-30T20:27:03.549Z,8.10
2022-08-30T20:29:07.345Z,7.82
2022-08-30T20:31:10.477Z,8.55
2022-08-30T20:33:12.574Z,8.43
2022-08-30T20:35:16.075Z,7.90
2022-08-30T20:37:17.975Z,7.95
2022-08-30T20:39:20.153Z,8.43
2022-08-30T20:41:22.349Z,8.75
2022-08-30T20:43:26.395Z,7.53
2022-08-30T20:45:30.942Z,8.00
2022-08-30T20:47:34.906Z,8.57
2022-08-30T20:49:37.212Z,7.85
2022-08-30T20:51:39.547Z,8.32
2022-08-30T20:53:42.205Z,8.63
2022-08-30T20:55:46.002Z,8.43
2022-08-30T20:57:47.751Z,8.43
2022-08-30T20:59:49.635Z,8.32
2022-08-30T21:01:51.541Z,8.03
2022-08-30T21:03:53.720Z,8.30
2022-08-30T21:05:56.688Z,9.23
2022-08-30T21:07:58.917Z,9.07
2022-08-30T21:10:00.757Z,8.75
2022-08-30T21:12:03.109Z,8.70
2022-08-30T21:14:05.464Z,8.52
2022-08-30T21:16:08.040Z,8.60
2022-08-30T21:18:14.764Z,9.07
2022-08-30T21:20:16.790Z,8.90
2022-08-30T21:22:18.928Z,8.32
2022-08-30T21:24:20.758Z,9.35
2022-08-30T21:26:23.211Z,8.68
2022-08-30T21:28:25.047Z,9.05
2022-08-30T21:30:26.931Z,8.83
2022-08-30T21:32:28.812Z,8.73
2022-08-30T21:34:50.576Z,9.32
2022-08-30T21:36:52.384Z,9.50
2022-08-30T21:38:57.623Z,9.93
2022-08-30T21:41:03.577Z,9.60
2022-08-30T21:43:07.473Z,9.05
2022-08-30T21:45:09.934Z,9.25
2022-08-30T21:47:11.841Z,9.43
2022-08-30T21:49:16.888Z,9.37
2022-08-30T21:51:19.324Z,9.20
2022-08-30T21:53:21.389Z,10.40
2022-08-30T21:55:23.386Z,9.50
2022-08-30T21:57:25.344Z,10.15
2022-08-30T21:59:28.559Z,9.77
2022-08-30T22:01:31.223Z,9.45
2022-08-30T22:03:33.016Z,9.40
2022-08-30T22:05:34.858Z,10.25
2022-08-30T22:07:37.395Z,9.32
2022-08-30T22:09:39.484Z,9.25
2022-08-30T22:11:43.488Z,9.73
2022-08-30T22:13:48.273Z,9.23
2022-08-30T22:15:50.141Z,9.52
2022-08-30T22:17:51.943Z,9.07
2022-08-30T22:19:54.339Z,9.93
2022-08-30T22:22:01.059Z,10.00
2022-08-30T22:24:04.210Z,8.73
2022-08-30T22:26:09.928Z,9.80
2022-08-30T22:28:15.141Z,9.88
2022-08-30T22:30:17.786Z,9.45
2022-08-30T22:32:19.684Z,9.65
2022-08-30T22:34:22.910Z,10.07
2022-08-30T22:36:32.633Z,9.88
2022-08-30T22:38:35.056Z,9.88
2022-08-30T22:40:36.938Z,10.52
2022-08-30T22:42:38.809Z,9.33
2022-08-30T22:44:41.397Z,9.73
2022-08-30T22:46:43.576Z,9.98
2022-08-30T22:48:47.483Z,10.13
2022-08-30T22:50:49.276Z,10.48
2022-08-30T22:52:51.124Z,10.18
2022-08-30T22:54:52.997Z,9.50
2022-08-30T22:56:54.779Z,9.37
2022-08-30T22:58:56.824Z,9.57
2022-08-30T23:00:58.786Z,10.43
2022-08-30T23:03:02.640Z,9.38
2022-08-30T23:05:05.451Z,9.83
2022-08-30T23:09:11.306Z,9.50
2022-08-30T23:11:13.836Z,8.73
2022-08-30T23:13:15.797Z,10.00
2022-08-30T23:15:17.619Z,9.53
2022-08-30T23:17:19.865Z,9.43
2022-08-30T23:19:23.684Z,10.05
2022-08-30T23:21:28.340Z,9.35
2022-08-30T23:23:48.548Z,9.32
2022-08-30T23:26:08.778Z,9.32
2022-08-30T23:28:29.241Z,9.65
2022-08-30T23:30:49.761Z,9.20
2022-08-30T23:33:10.380Z,9.00
2022-08-30T23:35:31.998Z,9.38
2022-08-30T23:37:53.115Z,9.73
2022-08-30T23:40:13.840Z,9.10
2022-08-30T23:42:34.502Z,9.02
2022-08-30T23:44:54.740Z,9.88
2022-08-30T23:47:15.675Z,9.93
2022-08-30T23:49:36.191Z,9.98
2022-08-30T23:51:57.053Z,9.90
2022-08-30T23:54:18.114Z,9.63
2022-08-30T23:56:38.355Z,10.25
2022-08-30T23:58:59.206Z,9.13
